Time;durP1;ratioP1;P1;durP2;ratioP2;P2;SDS_P1;SDS_P2;PMS_P1;PMS_P2;Temp;Humidity;BMP_temperature;BMP_pressure;BME280_temperature;BME280_humidity;BME280_pressure;Samples;Min_cycle;Max_cycle;Signal;HPM_P1;HPM_P2
2022/12/13 00:00:41;;;;;;;20.33;11.60;;;;;;;;;;8333655;28;20041;-62
2022/12/13 00:04:41;;;;;;;27.55;12.10;;;;;;;;;;8339309;28;20058;-62
2022/12/13 00:08:41;;;;;;;24.13;12.20;;;;;;;;;;8338358;28;20147;-61
2022/12/13 00:12:42;;;;;;;22.50;12.00;;;;;;;;;;8338203;28;20674;-60
2022/12/13 00:16:46;;;;;;;21.30;12.23;;;;;;;;;;8339506;28;20366;-61
2022/12/13 00:20:47;;;;;;;22.05;11.27;;;;;;;;;;8340957;28;21018;-61
2022/12/13 00:24:47;;;;;;;21.83;11.38;;;;;;;;;;8342705;28;20063;-60
2022/12/13 00:28:49;;;;;;;18.90;10.98;;;;;;;;;;8339541;28;20028;-61
2022/12/13 00:32:50;;;;;;;22.60;11.77;;;;;;;;;;8337701;28;20045;-61
2022/12/13 00:36:51;;;;;;;19.75;11.98;;;;;;;;;;8340316;28;20036;-62
2022/12/13 00:40:52;;;;;;;69.85;22.25;;;;;;;;;;8338716;28;20035;-61
2022/12/13 00:44:53;;;;;;;45.92;13.73;;;;;;;;;;8336032;28;20024;-62
2022/12/13 00:48:54;;;;;;;67.70;14.40;;;;;;;;;;8337291;28;20541;-62
2022/12/13 00:52:55;;;;;;;82.55;13.55;;;;;;;;;;8334125;28;20024;-62
2022/12/13 00:56:55;;;;;;;31.08;12.82;;;;;;;;;;8337470;28;20039;-61
2022/12/13 01:01:02;;;;;;;29.85;11.98;;;;;;;;;;8337119;28;20095;-64
2022/12/13 01:05:03;;;;;;;23.23;12.25;;;;;;;;;;8336155;28;20028;-61
2022/12/13 01:09:06;;;;;;;38.95;12.95;;;;;;;;;;8336817;28;20940;-62
2022/12/13 01:13:06;;;;;;;19.65;11.05;;;;;;;;;;8335103;28;20083;-61
2022/12/13 01:17:06;;;;;;;27.58;13.75;;;;;;;;;;8334741;28;20037;-61
2022/12/13 01:21:09;;;;;;;32.13;13.80;;;;;;;;;;8336364;28;21874;-61
2022/12/13 01:25:09;;;;;;;22.15;11.50;;;;;;;;;;8336208;28;20107;-61
2022/12/13 01:29:10;;;;;;;23.65;12.68;;;;;;;;;;8335788;28;20063;-65
2022/12/13 01:33:10;;;;;;;21.58;11.95;;;;;;;;;;8338837;28;20079;-61
2022/12/13 01:37:10;;;;;;;23.03;11.83;;;;;;;;;;8339944;28;20033;-62
2022/12/13 01:41:15;;;;;;;20.17;11.38;;;;;;;;;;8338775;28;20377;-61
2022/12/13 01:45:15;;;;;;;19.15;10.68;;;;;;;;;;8336281;28;20036;-61
2022/12/13 01:49:17;;;;;;;17.83;10.55;;;;;;;;;;8336132;28;20033;-62
2022/12/13 01:53:19;;;;;;;19.17;9.75;;;;;;;;;;8337932;28;20031;-62
2022/12/13 01:57:21;;;;;;;20.23;10.73;;;;;;;;;;8338058;28;20384;-60
2022/12/13 02:01:21;;;;;;;20.40;11.27;;;;;;;;;;8337409;28;20041;-61
2022/12/13 02:05:22;;;;;;;18.27;9.85;;;;;;;;;;8337789;28;20027;-62
2022/12/13 02:09:22;;;;;;;18.42;9.65;;;;;;;;;;8335520;28;20082;-60
2022/12/13 02:13:22;;;;;;;21.13;11.48;;;;;;;;;;8338544;28;20119;-61
2022/12/13 02:17:25;;;;;;;21.88;11.20;;;;;;;;;;8334551;28;20076;-62
2022/12/13 02:21:28;;;;;;;16.23;9.95;;;;;;;;;;8337526;28;20035;-61
2022/12/13 02:25:40;;;;;;;21.55;10.88;;;;;;;;;;8338394;28;20599;-62
2022/12/13 02:29:50;;;;;;;21.80;11.10;;;;;;;;;;8333325;28;20017;-61
2022/12/13 02:34:02;;;;;;;18.45;10.13;;;;;;;;;;8343916;28;20098;-61
2022/12/13 02:38:12;;;;;;;16.33;9.32;;;;;;;;;;8337359;28;20388;-61
2022/12/13 02:42:28;;;;;;;15.05;9.43;;;;;;;;;;8338090;28;20029;-61
2022/12/13 02:46:30;;;;;;;19.52;10.75;;;;;;;;;;8336125;28;20051;-61
2022/12/13 02:50:32;;;;;;;15.73;9.15;;;;;;;;;;8336882;28;20155;-61
2022/12/13 02:54:32;;;;;;;19.48;9.73;;;;;;;;;;8336059;28;20086;-61
2022/12/13 02:58:34;;;;;;;15.73;9.38;;;;;;;;;;8336536;28;20036;-61
2022/12/13 03:02:34;;;;;;;22.77;10.60;;;;;;;;;;8336042;28;20291;-61
2022/12/13 03:06:53;;;;;;;20.60;9.70;;;;;;;;;;8336685;28;20405;-61
2022/12/13 03:10:56;;;;;;;22.10;11.48;;;;;;;;;;8335344;28;20027;-61
2022/12/13 03:15:05;;;;;;;19.33;10.52;;;;;;;;;;8330987;28;20029;-61
2022/12/13 03:19:07;;;;;;;17.33;10.20;;;;;;;;;;8337787;28;20938;-61
2022/12/13 03:23:09;;;;;;;21.83;11.45;;;;;;;;;;8332452;28;20041;-62
2022/12/13 03:27:09;;;;;;;20.13;10.82;;;;;;;;;;8336373;28;20036;-61
2022/12/13 03:31:10;;;;;;;21.00;10.50;;;;;;;;;;8337315;28;20037;-60
2022/12/13 03:35:10;;;;;;;21.33;11.88;;;;;;;;;;8336214;28;20029;-61
2022/12/13 03:39:10;;;;;;;18.65;9.93;;;;;;;;;;8334212;28;20483;-62
2022/12/13 03:43:10;;;;;;;26.35;13.30;;;;;;;;;;8335979;28;20045;-61
2022/12/13 03:47:12;;;;;;;25.88;12.30;;;;;;;;;;8334711;28;20045;-62
2022/12/13 03:51:12;;;;;;;22.95;11.63;;;;;;;;;;8337191;28;20275;-61
2022/12/13 03:55:12;;;;;;;22.70;10.10;;;;;;;;;;8335568;28;20021;-61
2022/12/13 03:59:13;;;;;;;19.88;10.45;;;;;;;;;;8336150;28;20017;-61
2022/12/13 04:03:13;;;;;;;22.90;12.38;;;;;;;;;;8336768;28;20045;-61
2022/12/13 04:07:13;;;;;;;18.08;9.68;;;;;;;;;;8338991;28;20032;-62
2022/12/13 04:15:33;;;;;;;22.83;11.60;;;;;;;;;;8339593;28;20063;-61
2022/12/13 04:19:33;;;;;;;22.55;10.73;;;;;;;;;;8344001;28;20078;-61
2022/12/13 04:23:34;;;;;;;25.58;12.35;;;;;;;;;;8340716;28;20025;-61
2022/12/13 04:27:36;;;;;;;23.20;11.98;;;;;;;;;;8340046;28;20029;-62
2022/12/13 04:31:37;;;;;;;26.00;12.55;;;;;;;;;;8339006;28;20119;-61
2022/12/13 04:35:37;;;;;;;25.83;13.27;;;;;;;;;;8341632;28;20042;-61
2022/12/13 04:39:37;;;;;;;27.23;13.77;;;;;;;;;;8340927;28;20056;-61
2022/12/13 04:43:37;;;;;;;29.87;14.00;;;;;;;;;;8340628;28;20143;-61
2022/12/13 04:47:38;;;;;;;27.67;13.68;;;;;;;;;;8338126;28;20279;-61
2022/12/13 04:51:38;;;;;;;29.42;13.85;;;;;;;;;;8341908;28;20021;-61
2022/12/13 04:55:38;;;;;;;20.90;10.82;;;;;;;;;;8340420;28;20025;-62
2022/12/13 04:59:39;;;;;;;21.48;10.98;;;;;;;;;;8340789;28;20021;-61
2022/12/13 05:03:39;;;;;;;19.48;10.05;;;;;;;;;;8336198;28;20095;-61
2022/12/13 05:07:40;;;;;;;20.70;10.45;;;;;;;;;;8342140;28;20036;-61
2022/12/13 05:11:41;;;;;;;28.08;11.82;;;;;;;;;;8338749;28;20052;-61
2022/12/13 05:15:42;;;;;;;22.05;11.68;;;;;;;;;;8338311;28;20062;-62
2022/12/13 05:19:42;;;;;;;73.57;14.30;;;;;;;;;;8338881;28;20012;-62
2022/12/13 05:23:42;;;;;;;35.15;13.63;;;;;;;;;;8340567;28;20052;-61
2022/12/13 05:27:43;;;;;;;59.72;13.57;;;;;;;;;;8345974;28;20059;-62
2022/12/13 05:31:43;;;;;;;47.70;14.00;;;;;;;;;;8338807;28;20276;-62
2022/12/13 05:35:43;;;;;;;29.23;13.63;;;;;;;;;;8339101;28;20025;-62
2022/12/13 05:39:44;;;;;;;54.67;14.55;;;;;;;;;;8339949;28;20154;-61
2022/12/13 05:43:44;;;;;;;26.13;12.65;;;;;;;;;;8337321;28;20394;-61
2022/12/13 05:47:44;;;;;;;23.45;11.48;;;;;;;;;;8333871;28;20044;-63
2022/12/13 05:51:45;;;;;;;69.07;14.18;;;;;;;;;;8335382;28;20021;-61
2022/12/13 05:55:45;;;;;;;100.72;14.70;;;;;;;;;;8335117;28;20031;-60
2022/12/13 05:59:45;;;;;;;25.75;12.90;;;;;;;;;;8338130;28;20063;-61
2022/12/13 06:03:45;;;;;;;21.52;11.70;;;;;;;;;;8337677;28;20127;-61
2022/12/13 06:07:45;;;;;;;21.42;11.43;;;;;;;;;;8337283;28;20119;-62
2022/12/13 06:11:46;;;;;;;29.20;12.82;;;;;;;;;;8334991;28;20081;-61
2022/12/13 06:15:46;;;;;;;21.50;11.60;;;;;;;;;;8336686;28;20105;-62
2022/12/13 06:19:47;;;;;;;31.40;11.20;;;;;;;;;;8336258;28;20935;-62
2022/12/13 06:23:47;;;;;;;22.80;12.60;;;;;;;;;;8330495;28;20946;-62
2022/12/13 06:27:47;;;;;;;23.33;12.30;;;;;;;;;;8335207;28;20594;-62
2022/12/13 06:31:50;;;;;;;28.25;13.70;;;;;;;;;;8330445;28;20671;-60
2022/12/13 06:35:51;;;;;;;26.48;12.98;;;;;;;;;;8332883;28;20271;-60
2022/12/13 06:39:51;;;;;;;24.13;12.43;;;;;;;;;;8330344;28;20024;-61
2022/12/13 06:43:51;;;;;;;28.58;14.30;;;;;;;;;;8331289;28;20029;-61
2022/12/13 06:47:52;;;;;;;23.45;13.18;;;;;;;;;;8332298;28;20071;-61
2022/12/13 06:51:52;;;;;;;22.70;12.20;;;;;;;;;;8329063;28;20032;-61
2022/12/13 06:55:53;;;;;;;24.80;12.82;;;;;;;;;;8330521;28;20596;-62
2022/12/13 06:59:53;;;;;;;21.38;12.05;;;;;;;;;;8329574;28;20555;-62
2022/12/13 07:03:53;;;;;;;27.55;14.43;;;;;;;;;;8329349;28;20044;-60
2022/12/13 07:07:53;;;;;;;23.63;12.10;;;;;;;;;;8330286;28;20294;-61
2022/12/13 07:11:54;;;;;;;32.90;13.95;;;;;;;;;;8330080;28;20474;-61
2022/12/13 07:15:54;;;;;;;22.10;11.30;;;;;;;;;;8328304;28;20466;-63
2022/12/13 07:19:54;;;;;;;25.38;12.25;;;;;;;;;;8331758;28;20263;-61
2022/12/13 07:23:54;;;;;;;27.88;13.48;;;;;;;;;;8328472;28;20279;-62
2022/12/13 07:27:59;;;;;;;31.38;15.00;;;;;;;;;;8329797;28;20059;-62
2022/12/13 07:31:59;;;;;;;26.40;13.25;;;;;;;;;;8327074;28;20056;-61
2022/12/13 07:36:05;;;;;;;21.13;11.77;;;;;;;;;;8328799;28;20669;-63
2022/12/13 07:40:06;;;;;;;23.65;12.77;;;;;;;;;;8329187;28;20512;-61
2022/12/13 07:44:07;;;;;;;25.13;12.73;;;;;;;;;;8334862;28;20025;-62
2022/12/13 07:48:07;;;;;;;24.05;12.57;;;;;;;;;;8337033;28;20047;-62
2022/12/13 07:52:11;;;;;;;22.17;12.30;;;;;;;;;;8337396;28;20036;-62
2022/12/13 07:56:11;;;;;;;27.52;11.90;;;;;;;;;;8332509;28;20040;-60
2022/12/13 08:00:11;;;;;;;26.52;13.00;;;;;;;;;;8333309;28;20175;-61
2022/12/13 08:04:12;;;;;;;25.75;12.85;;;;;;;;;;8335580;28;20078;-60
2022/12/13 08:08:12;;;;;;;24.67;12.73;;;;;;;;;;8334897;28;20027;-61
2022/12/13 08:12:12;;;;;;;25.63;13.43;;;;;;;;;;8334262;28;20342;-60
2022/12/13 08:16:16;;;;;;;24.42;12.27;;;;;;;;;;8332740;28;20739;-61
2022/12/13 08:20:16;;;;;;;24.88;12.63;;;;;;;;;;8333059;28;20075;-62
2022/12/13 08:24:17;;;;;;;22.27;11.70;;;;;;;;;;8334263;28;20040;-65
2022/12/13 08:28:17;;;;;;;23.55;11.80;;;;;;;;;;8336353;28;21242;-61
2022/12/13 08:32:18;;;;;;;22.05;12.65;;;;;;;;;;8333440;28;20805;-61
2022/12/13 08:36:18;;;;;;;21.42;10.85;;;;;;;;;;8333114;28;20031;-61
2022/12/13 08:40:18;;;;;;;21.17;12.18;;;;;;;;;;8334701;28;20065;-61
2022/12/13 08:44:19;;;;;;;24.65;12.68;;;;;;;;;;8335032;28;20122;-61
2022/12/13 08:48:19;;;;;;;21.67;11.30;;;;;;;;;;8334603;28;20040;-61
2022/12/13 08:52:20;;;;;;;26.48;12.98;;;;;;;;;;8333156;28;20111;-62
2022/12/13 08:56:20;;;;;;;27.02;12.35;;;;;;;;;;8330832;28;20032;-61
2022/12/13 09:00:20;;;;;;;22.95;11.50;;;;;;;;;;8335550;28;20146;-62
2022/12/13 09:04:21;;;;;;;23.33;11.70;;;;;;;;;;8335575;28;20067;-61
2022/12/13 09:08:21;;;;;;;20.02;11.60;;;;;;;;;;8332622;28;20318;-61
2022/12/13 09:12:21;;;;;;;19.83;11.43;;;;;;;;;;8334508;28;20111;-61
2022/12/13 09:16:22;;;;;;;20.33;11.40;;;;;;;;;;8331331;28;20120;-61
2022/12/13 09:20:23;;;;;;;23.63;11.35;;;;;;;;;;8330829;28;20028;-61
2022/12/13 09:24:23;;;;;;;23.08;11.35;;;;;;;;;;8332864;28;20029;-62
2022/12/13 09:28:23;;;;;;;20.60;11.10;;;;;;;;;;8333985;28;20036;-60
2022/12/13 09:32:24;;;;;;;19.65;11.45;;;;;;;;;;8334969;28;20041;-61
2022/12/13 09:36:24;;;;;;;23.98;12.98;;;;;;;;;;8330992;28;20048;-62
2022/12/13 09:40:26;;;;;;;25.35;11.45;;;;;;;;;;8332265;28;20356;-61
2022/12/13 09:44:28;;;;;;;22.90;11.98;;;;;;;;;;8329258;28;20075;-61
2022/12/13 09:48:28;;;;;;;19.77;11.38;;;;;;;;;;8330515;28;20045;-61
2022/12/13 09:52:34;;;;;;;22.77;11.60;;;;;;;;;;8327014;28;20048;-62
2022/12/13 09:56:34;;;;;;;27.40;14.00;;;;;;;;;;8331680;28;20359;-62
2022/12/13 10:00:35;;;;;;;30.35;13.60;;;;;;;;;;8333100;28;20033;-61
2022/12/13 10:04:35;;;;;;;25.55;13.40;;;;;;;;;;8331634;28;20040;-62
2022/12/13 10:08:43;;;;;;;23.83;12.15;;;;;;;;;;8328850;28;20028;-62
2022/12/13 10:12:46;;;;;;;28.63;14.15;;;;;;;;;;8336151;28;20017;-62
2022/12/13 10:16:51;;;;;;;24.77;13.80;;;;;;;;;;8329637;28;20036;-61
2022/12/13 10:20:52;;;;;;;24.15;12.98;;;;;;;;;;8332445;28;20036;-62
2022/12/13 10:24:53;;;;;;;25.75;13.05;;;;;;;;;;8325526;28;21553;-61
2022/12/13 10:29:00;;;;;;;23.75;13.50;;;;;;;;;;8320920;28;20050;-62
2022/12/13 10:33:02;;;;;;;26.23;13.30;;;;;;;;;;8329169;28;20044;-62
2022/12/13 10:37:26;;;;;;;24.42;12.70;;;;;;;;;;8326838;28;20608;-62
2022/12/13 10:41:31;;;;;;;24.85;12.55;;;;;;;;;;8318671;28;20045;-62
2022/12/13 10:45:32;;;;;;;25.23;12.50;;;;;;;;;;8327140;28;20040;-62
2022/12/13 10:49:48;;;;;;;25.13;12.55;;;;;;;;;;8324890;28;20029;-62
2022/12/13 10:53:59;;;;;;;22.60;12.23;;;;;;;;;;8335096;28;20391;-63
2022/12/13 10:58:00;;;;;;;23.00;12.13;;;;;;;;;;8320890;28;20039;-62
2022/12/13 11:02:19;;;;;;;26.05;12.60;;;;;;;;;;8329083;28;20413;-62
2022/12/13 11:06:19;;;;;;;29.20;12.55;;;;;;;;;;8325373;28;20033;-62
2022/12/13 11:10:19;;;;;;;26.02;12.48;;;;;;;;;;8327976;28;20340;-63
2022/12/13 11:14:22;;;;;;;24.73;13.25;;;;;;;;;;8328766;28;20558;-62
2022/12/13 11:18:23;;;;;;;22.58;11.75;;;;;;;;;;8332181;28;20036;-62
2022/12/13 11:22:24;;;;;;;23.33;12.45;;;;;;;;;;8331154;28;20393;-62
2022/12/13 11:26:24;;;;;;;23.38;13.05;;;;;;;;;;8330493;28;20025;-62
2022/12/13 11:30:43;;;;;;;21.58;11.98;;;;;;;;;;8330801;28;20106;-62
2022/12/13 11:34:52;;;;;;;26.58;12.63;;;;;;;;;;8339311;28;20497;-59
2022/12/13 11:39:07;;;;;;;25.45;12.40;;;;;;;;;;8337091;28;20024;-60
2022/12/13 11:43:14;;;;;;;23.33;12.60;;;;;;;;;;8334959;28;20025;-60
2022/12/13 11:47:34;;;;;;;23.92;13.13;;;;;;;;;;8334445;28;20036;-61
2022/12/13 11:51:43;;;;;;;26.30;14.25;;;;;;;;;;8344140;28;20120;-61
2022/12/13 11:55:48;;;;;;;25.65;12.98;;;;;;;;;;8337099;28;20090;-62
2022/12/13 11:59:52;;;;;;;25.90;13.45;;;;;;;;;;8335642;28;20402;-60
2022/12/13 12:04:16;;;;;;;24.50;12.88;;;;;;;;;;8334806;28;20041;-61
2022/12/13 12:08:20;;;;;;;23.70;11.98;;;;;;;;;;8335357;28;20048;-60
2022/12/13 12:12:28;;;;;;;21.75;11.73;;;;;;;;;;8335771;28;20546;-61
2022/12/13 12:16:29;;;;;;;22.08;11.30;;;;;;;;;;8334203;28;20129;-61
2022/12/13 12:20:43;;;;;;;23.27;11.47;;;;;;;;;;8336538;28;20103;-61
2022/12/13 12:24:43;;;;;;;20.17;11.70;;;;;;;;;;8333108;28;20429;-62
2022/12/13 12:29:09;;;;;;;22.73;12.23;;;;;;;;;;8336363;28;20038;-61
2022/12/13 12:33:28;;;;;;;23.63;12.52;;;;;;;;;;8333142;28;20041;-61
2022/12/13 12:37:34;;;;;;;27.30;14.05;;;;;;;;;;8334305;28;20128;-62
2022/12/13 12:41:54;;;;;;;24.95;13.68;;;;;;;;;;8330658;28;20644;-61
2022/12/13 12:46:23;;;;;;;23.50;12.65;;;;;;;;;;8329752;28;20044;-61
2022/12/13 12:50:33;;;;;;;24.52;12.30;;;;;;;;;;8322702;28;20486;-62
2022/12/13 12:54:42;;;;;;;18.77;11.77;;;;;;;;;;8339330;28;20017;-61
2022/12/13 12:58:42;;;;;;;20.80;11.68;;;;;;;;;;8332840;28;20789;-62
2022/12/13 13:02:51;;;;;;;20.73;10.90;;;;;;;;;;8335290;28;20033;-61
2022/12/13 13:06:56;;;;;;;20.75;11.23;;;;;;;;;;8334934;28;20025;-61
2022/12/13 13:10:56;;;;;;;18.95;10.93;;;;;;;;;;8331668;28;20028;-61
2022/12/13 13:14:57;;;;;;;21.33;10.88;;;;;;;;;;8330245;28;20219;-61
2022/12/13 13:18:58;;;;;;;24.67;12.50;;;;;;;;;;8331251;28;20102;-61
2022/12/13 13:23:11;;;;;;;20.80;11.65;;;;;;;;;;8331494;28;20507;-61
2022/12/13 13:27:14;;;;;;;23.23;12.43;;;;;;;;;;8328213;28;20796;-61
2022/12/13 13:31:17;;;;;;;21.38;11.80;;;;;;;;;;8340230;28;20037;-62
2022/12/13 13:39:56;;;;;;;20.77;11.98;;;;;;;;;;8335265;28;20031;-61
2022/12/13 13:43:59;;;;;;;21.38;11.45;;;;;;;;;;8337108;28;20052;-61
2022/12/13 13:48:12;;;;;;;25.60;11.10;;;;;;;;;;8333645;28;20049;-61
2022/12/13 13:52:15;;;;;;;21.20;11.70;;;;;;;;;;8332843;28;20025;-62
2022/12/13 13:56:34;;;;;;;21.20;12.50;;;;;;;;;;8332475;28;20171;-60
2022/12/13 14:00:43;;;;;;;21.95;12.25;;;;;;;;;;8332479;28;20109;-61
2022/12/13 14:04:46;;;;;;;21.70;10.68;;;;;;;;;;8337242;28;20033;-62
2022/12/13 14:09:05;;;;;;;24.50;9.95;;;;;;;;;;8336390;28;20025;-61
2022/12/13 14:13:24;;;;;;;15.38;9.10;;;;;;;;;;8339264;28;20025;-62
2022/12/13 14:17:27;;;;;;;14.75;9.07;;;;;;;;;;8338498;28;20037;-62
2022/12/13 14:21:27;;;;;;;16.58;10.00;;;;;;;;;;8336091;28;20143;-62
2022/12/13 14:25:33;;;;;;;17.33;9.57;;;;;;;;;;8335607;28;20059;-62
2022/12/13 14:29:39;;;;;;;16.02;9.68;;;;;;;;;;8333434;28;20039;-61
2022/12/13 14:33:42;;;;;;;17.65;10.13;;;;;;;;;;8332717;28;20151;-61
2022/12/13 14:37:42;;;;;;;21.27;11.43;;;;;;;;;;8335929;28;20024;-62
2022/12/13 14:41:47;;;;;;;21.23;11.43;;;;;;;;;;8338217;28;20048;-63
2022/12/13 14:45:52;;;;;;;21.52;11.30;;;;;;;;;;8337115;28;20036;-62
2022/12/13 14:49:53;;;;;;;16.73;10.07;;;;;;;;;;8337828;28;20032;-62
2022/12/13 14:53:54;;;;;;;18.77;10.43;;;;;;;;;;8335897;28;20932;-61
2022/12/13 14:57:55;;;;;;;15.95;9.98;;;;;;;;;;8335396;28;20025;-63
2022/12/13 15:02:04;;;;;;;16.63;9.52;;;;;;;;;;8338126;28;20111;-63
2022/12/13 15:06:04;;;;;;;18.50;10.00;;;;;;;;;;8336605;28;20029;-61
2022/12/13 15:10:18;;;;;;;16.35;9.80;;;;;;;;;;8336744;28;20081;-61
2022/12/13 15:14:20;;;;;;;19.15;10.90;;;;;;;;;;8333948;28;20025;-61
2022/12/13 15:18:25;;;;;;;16.52;9.80;;;;;;;;;;8334621;28;20029;-62
2022/12/13 15:22:26;;;;;;;15.35;8.85;;;;;;;;;;8336330;28;20060;-61
2022/12/13 15:26:26;;;;;;;20.27;10.48;;;;;;;;;;8333167;28;20094;-61
2022/12/13 15:30:32;;;;;;;23.48;11.20;;;;;;;;;;8337735;28;20098;-62
2022/12/13 15:34:33;;;;;;;16.42;9.88;;;;;;;;;;8335135;28;20021;-62
2022/12/13 15:38:36;;;;;;;16.52;10.05;;;;;;;;;;8335813;28;20029;-61
2022/12/13 15:42:37;;;;;;;16.75;9.45;;;;;;;;;;8333915;28;20198;-62
2022/12/13 15:46:38;;;;;;;17.80;10.73;;;;;;;;;;8332420;28;20041;-62
2022/12/13 15:50:38;;;;;;;17.25;10.55;;;;;;;;;;8334829;28;20024;-62
2022/12/13 15:54:39;;;;;;;15.45;9.20;;;;;;;;;;8333101;28;20418;-61
2022/12/13 15:58:39;;;;;;;15.45;9.20;;;;;;;;;;8332072;28;20596;-62
2022/12/13 16:03:06;;;;;;;18.10;10.13;;;;;;;;;;8332576;28;20037;-61
2022/12/13 16:07:19;;;;;;;18.27;9.88;;;;;;;;;;8341408;28;20044;-61
2022/12/13 16:11:28;;;;;;;15.55;9.73;;;;;;;;;;8337804;28;20882;-62
2022/12/13 16:15:46;;;;;;;17.90;10.40;;;;;;;;;;8337417;28;20060;-62
2022/12/13 16:19:46;;;;;;;15.45;9.55;;;;;;;;;;8339266;28;20478;-62
2022/12/13 16:23:47;;;;;;;15.80;9.40;;;;;;;;;;8339056;28;20024;-63
2022/12/13 16:27:47;;;;;;;16.63;9.48;;;;;;;;;;8334833;28;20033;-62
2022/12/13 16:31:48;;;;;;;22.42;9.38;;;;;;;;;;8336970;28;20275;-62
2022/12/13 16:35:48;;;;;;;17.40;8.95;;;;;;;;;;8338699;28;20158;-62
2022/12/13 16:39:48;;;;;;;15.32;9.10;;;;;;;;;;8331278;28;20082;-61
2022/12/13 16:43:54;;;;;;;13.52;9.00;;;;;;;;;;8338552;28;20139;-62
2022/12/13 16:47:54;;;;;;;15.13;9.27;;;;;;;;;;8333926;28;20037;-62
2022/12/13 16:51:55;;;;;;;15.60;9.15;;;;;;;;;;8335230;28;20931;-62
2022/12/13 16:55:55;;;;;;;16.25;8.52;;;;;;;;;;8335313;28;20371;-63
2022/12/13 16:59:55;;;;;;;16.60;8.43;;;;;;;;;;8337795;28;20032;-62
2022/12/13 17:03:56;;;;;;;17.60;8.88;;;;;;;;;;8338412;28;20044;-62
2022/12/13 17:07:56;;;;;;;16.17;9.10;;;;;;;;;;8342283;28;20033;-62
2022/12/13 17:11:56;;;;;;;15.90;8.38;;;;;;;;;;8340663;28;20025;-62
2022/12/13 17:15:56;;;;;;;13.17;8.73;;;;;;;;;;8338715;28;20093;-62
2022/12/13 17:19:57;;;;;;;14.68;8.88;;;;;;;;;;8334982;28;20298;-62
2022/12/13 17:23:58;;;;;;;14.18;8.23;;;;;;;;;;8338549;28;20646;-62
2022/12/13 17:27:58;;;;;;;13.75;8.45;;;;;;;;;;8339668;28;20283;-62
2022/12/13 17:31:59;;;;;;;15.75;8.18;;;;;;;;;;8337240;28;20047;-62
2022/12/13 17:36:00;;;;;;;15.70;8.73;;;;;;;;;;8337987;28;20352;-62
2022/12/13 17:40:00;;;;;;;16.52;8.45;;;;;;;;;;8338157;28;20037;-62
2022/12/13 17:44:00;;;;;;;14.63;8.73;;;;;;;;;;8335938;28;20767;-62
2022/12/13 17:48:01;;;;;;;16.25;9.25;;;;;;;;;;8336575;28;20033;-62
2022/12/13 17:52:01;;;;;;;15.03;8.63;;;;;;;;;;8339591;28;20098;-62
2022/12/13 17:56:03;;;;;;;12.73;7.93;;;;;;;;;;8337930;28;20282;-62
2022/12/13 18:00:03;;;;;;;18.40;8.88;;;;;;;;;;8338118;28;20031;-62
2022/12/13 18:04:04;;;;;;;16.10;9.52;;;;;;;;;;8337819;28;20021;-62
2022/12/13 18:08:04;;;;;;;15.75;8.88;;;;;;;;;;8339226;28;20029;-62
2022/12/13 18:12:04;;;;;;;15.18;8.05;;;;;;;;;;8336179;28;20353;-63
2022/12/13 18:16:05;;;;;;;15.43;7.60;;;;;;;;;;8333190;28;20302;-63
2022/12/13 18:20:06;;;;;;;15.10;8.15;;;;;;;;;;8350971;28;20320;-62
2022/12/13 18:24:06;;;;;;;13.63;7.47;;;;;;;;;;8331686;28;20033;-62
2022/12/13 18:28:08;;;;;;;13.35;8.00;;;;;;;;;;8331638;28;20020;-62
2022/12/13 18:32:08;;;;;;;17.42;7.10;;;;;;;;;;8331287;28;20041;-62
2022/12/13 18:36:08;;;;;;;12.77;8.23;;;;;;;;;;8331237;28;20544;-62
2022/12/13 18:40:09;;;;;;;13.60;7.80;;;;;;;;;;8331338;28;20033;-62
2022/12/13 18:44:10;;;;;;;13.88;8.00;;;;;;;;;;8334582;28;20099;-62
2022/12/13 18:48:10;;;;;;;13.20;7.97;;;;;;;;;;8332937;28;20132;-61
2022/12/13 18:52:10;;;;;;;12.30;7.45;;;;;;;;;;8331976;28;20028;-61
2022/12/13 18:56:12;;;;;;;14.52;7.75;;;;;;;;;;8331517;28;20032;-62
2022/12/13 19:00:13;;;;;;;12.90;7.72;;;;;;;;;;8332633;28;21116;-62
2022/12/13 19:04:13;;;;;;;18.17;8.73;;;;;;;;;;8332943;28;20017;-61
2022/12/13 19:08:13;;;;;;;17.40;8.27;;;;;;;;;;8329667;28;20043;-62
2022/12/13 19:12:14;;;;;;;14.50;8.50;;;;;;;;;;8331875;28;20110;-61
2022/12/13 19:16:16;;;;;;;14.50;7.80;;;;;;;;;;8333552;28;20044;-62
2022/12/13 19:20:17;;;;;;;14.85;8.35;;;;;;;;;;8332929;28;20036;-62
2022/12/13 19:24:17;;;;;;;15.03;7.87;;;;;;;;;;8333996;28;20032;-62
2022/12/13 19:28:17;;;;;;;12.82;8.52;;;;;;;;;;8334242;28;20408;-61
2022/12/13 19:32:17;;;;;;;15.48;7.57;;;;;;;;;;8332119;28;20221;-61
2022/12/13 19:36:18;;;;;;;15.73;8.75;;;;;;;;;;8333005;28;20021;-62
2022/12/13 19:40:18;;;;;;;16.77;8.73;;;;;;;;;;8340143;28;20128;-62
2022/12/13 19:44:18;;;;;;;16.42;8.88;;;;;;;;;;8357115;28;20051;-62
2022/12/13 19:48:19;;;;;;;16.35;9.43;;;;;;;;;;8338778;28;20877;-62
2022/12/13 19:52:19;;;;;;;16.77;9.50;;;;;;;;;;8338577;28;20022;-62
2022/12/13 19:56:20;;;;;;;17.13;8.73;;;;;;;;;;8335207;28;20405;-62
2022/12/13 20:00:20;;;;;;;15.30;8.70;;;;;;;;;;8336161;28;20251;-61
2022/12/13 20:04:20;;;;;;;15.88;8.52;;;;;;;;;;8337841;28;20082;-62
2022/12/13 20:08:20;;;;;;;15.35;8.07;;;;;;;;;;8338837;28;20027;-62
2022/12/13 20:12:21;;;;;;;15.90;9.25;;;;;;;;;;8337382;28;20114;-63
2022/12/13 20:16:23;;;;;;;15.38;8.90;;;;;;;;;;8334054;28;20874;-62
2022/12/13 20:20:23;;;;;;;13.30;8.07;;;;;;;;;;8334031;28;20275;-62
2022/12/13 20:24:24;;;;;;;15.23;8.57;;;;;;;;;;8333587;28;20757;-62
2022/12/13 20:28:24;;;;;;;15.37;9.27;;;;;;;;;;8334232;28;20105;-61
2022/12/13 20:32:24;;;;;;;13.75;8.38;;;;;;;;;;8347604;28;20272;-62
2022/12/13 20:36:27;;;;;;;15.03;8.60;;;;;;;;;;8334401;28;20021;-62
2022/12/13 20:40:27;;;;;;;15.63;9.93;;;;;;;;;;8336555;28;20788;-63
2022/12/13 20:44:27;;;;;;;16.08;8.70;;;;;;;;;;8337241;28;20927;-62
2022/12/13 20:48:28;;;;;;;19.48;10.40;;;;;;;;;;8335858;28;20374;-62
2022/12/13 20:52:28;;;;;;;17.77;10.05;;;;;;;;;;8328773;28;20024;-62
2022/12/13 20:56:31;;;;;;;20.35;10.30;;;;;;;;;;8337599;28;20028;-62
2022/12/13 21:00:31;;;;;;;13.90;8.38;;;;;;;;;;8334181;28;20275;-62
2022/12/13 21:04:32;;;;;;;16.48;9.13;;;;;;;;;;8338627;28;20028;-62
2022/12/13 21:08:50;;;;;;;15.45;8.80;;;;;;;;;;8335306;28;20021;-61
2022/12/13 21:12:50;;;;;;;15.18;8.98;;;;;;;;;;8338347;28;20028;-62
2022/12/13 21:16:52;;;;;;;13.65;8.40;;;;;;;;;;8335630;28;20981;-62
2022/12/13 21:20:53;;;;;;;13.02;8.00;;;;;;;;;;8335196;28;20674;-62
2022/12/13 21:24:54;;;;;;;14.80;8.20;;;;;;;;;;8335526;28;20029;-62
2022/12/13 21:28:58;;;;;;;14.10;8.43;;;;;;;;;;8336573;28;20060;-62
2022/12/13 21:32:59;;;;;;;13.85;8.80;;;;;;;;;;8332217;28;20037;-62
2022/12/13 21:36:59;;;;;;;14.98;9.02;;;;;;;;;;8335546;28;20028;-62
2022/12/13 21:40:59;;;;;;;14.15;8.40;;;;;;;;;;8335966;28;20314;-62
2022/12/13 21:45:00;;;;;;;15.30;8.65;;;;;;;;;;8335735;28;20140;-62
2022/12/13 21:49:00;;;;;;;13.93;8.40;;;;;;;;;;8334549;28;20039;-62
2022/12/13 21:53:01;;;;;;;13.93;8.70;;;;;;;;;;8335701;28;20272;-62
2022/12/13 22:01:20;;;;;;;14.75;8.75;;;;;;;;;;8335662;28;20044;-61
2022/12/13 22:05:20;;;;;;;18.88;9.50;;;;;;;;;;8334470;28;20025;-62
2022/12/13 22:09:21;;;;;;;15.23;8.45;;;;;;;;;;8334434;28;20021;-62
2022/12/13 22:13:21;;;;;;;13.68;8.52;;;;;;;;;;8351112;28;20020;-62
2022/12/13 22:17:22;;;;;;;18.03;9.30;;;;;;;;;;8334624;28;20056;-62
2022/12/13 22:21:23;;;;;;;16.10;9.88;;;;;;;;;;8334357;28;20267;-62
2022/12/13 22:25:23;;;;;;;15.82;8.38;;;;;;;;;;8333464;28;20131;-62
2022/12/13 22:29:23;;;;;;;15.10;9.23;;;;;;;;;;8336052;28;20028;-62
2022/12/13 22:33:23;;;;;;;14.45;8.90;;;;;;;;;;8334080;28;20492;-62
2022/12/13 22:37:24;;;;;;;15.55;9.43;;;;;;;;;;8337127;28;20902;-62
2022/12/13 22:41:24;;;;;;;14.75;7.82;;;;;;;;;;8333864;28;20786;-61
2022/12/13 22:45:24;;;;;;;16.67;8.38;;;;;;;;;;8335154;28;20032;-63
2022/12/13 22:49:25;;;;;;;12.07;7.75;;;;;;;;;;8333232;28;20490;-62
2022/12/13 22:53:26;;;;;;;14.98;8.75;;;;;;;;;;8328376;28;20021;-62
2022/12/13 22:57:26;;;;;;;19.13;7.95;;;;;;;;;;8335222;28;20145;-62
2022/12/13 23:01:28;;;;;;;16.15;9.15;;;;;;;;;;8336240;28;20147;-62
2022/12/13 23:05:29;;;;;;;12.63;7.97;;;;;;;;;;8335015;28;20174;-62
2022/12/13 23:09:29;;;;;;;13.88;7.85;;;;;;;;;;8334286;28;20036;-62
2022/12/13 23:13:29;;;;;;;14.27;7.45;;;;;;;;;;8335223;28;20012;-62
2022/12/13 23:17:29;;;;;;;13.93;7.93;;;;;;;;;;8337931;28;20657;-62
2022/12/13 23:21:30;;;;;;;13.63;7.60;;;;;;;;;;8336949;28;20275;-62
2022/12/13 23:25:30;;;;;;;11.93;7.37;;;;;;;;;;8337900;28;20116;-63
2022/12/13 23:29:30;;;;;;;14.07;8.20;;;;;;;;;;8335863;28;20291;-62
2022/12/13 23:33:30;;;;;;;14.23;8.25;;;;;;;;;;8333602;28;20280;-61
2022/12/13 23:37:31;;;;;;;11.48;7.65;;;;;;;;;;8335371;28;20044;-62
2022/12/13 23:41:31;;;;;;;15.15;8.13;;;;;;;;;;8335329;28;20114;-61
2022/12/13 23:45:32;;;;;;;13.85;7.85;;;;;;;;;;8335030;28;20037;-62
2022/12/13 23:49:32;;;;;;;12.20;7.40;;;;;;;;;;8334243;28;20034;-62